TAM4607 SBGO-SBGR
Flight info
| Callsign | TAM4607 |
|---|---|
| Flight time | 1h 13m |
| Altitude | 35000 |
| Route | ESBOD DCT ILPAV DCT ROBAG UZ38 VUNOX |
| Aircraft | A321/M-SDE3FGHIRWY/LB1 |
Departure
| Time | 2026-04-23 15:04 |
|---|---|
| Airport | Santa Genoveva International Airport (SBGO) |
Arrival
| Time | 2026-04-23 16:18 |
|---|---|
| Airport | São Paulo/Guarulhos–Governor André Franco Montoro International Airport (SBGR) |
| Time | Latitude | Longitude | Altitude | Speed | Heading |
|---|---|---|---|---|---|
| 2026-04-23 14:10 | -16.63041 | -49.21484 | 2468 ft | 0 kts | 49° |
| 2026-04-23 14:54 | -16.63048 | -49.21492 | 2469 ft | 2 kts | 49° |
| 2026-04-23 14:54 | -16.63058 | -49.21504 | 2469 ft | 2 kts | 49° |
| 2026-04-23 14:54 | -16.63066 | -49.21514 | 2469 ft | 0 kts | 49° |
| 2026-04-23 14:54 | -16.63075 | -49.21522 | 2469 ft | 2 kts | 20° |
| 2026-04-23 14:55 | -16.63090 | -49.21524 | 2469 ft | 2 kts | 347° |
| 2026-04-23 14:55 | -16.63102 | -49.21518 | 2469 ft | 0 kts | 317° |
| 2026-04-23 14:55 | -16.63106 | -49.21514 | 2469 ft | 1 kts | 311° |
| 2026-04-23 14:55 | -16.63108 | -49.21512 | 2469 ft | 0 kts | 312° |
| 2026-04-23 14:57 | -16.63101 | -49.21520 | 2469 ft | 2 kts | 315° |
| 2026-04-23 14:57 | -16.63079 | -49.21540 | 2469 ft | 5 kts | 319° |
| 2026-04-23 14:58 | -16.63043 | -49.21569 | 2469 ft | 7 kts | 325° |
| 2026-04-23 14:58 | -16.62989 | -49.21602 | 2469 ft | 9 kts | 335° |
| 2026-04-23 14:58 | -16.62931 | -49.21629 | 2469 ft | 8 kts | 320° |
| 2026-04-23 14:58 | -16.62921 | -49.21690 | 2469 ft | 10 kts | 261° |
| 2026-04-23 14:59 | -16.62938 | -49.21768 | 2469 ft | 12 kts | 257° |
| 2026-04-23 14:59 | -16.62957 | -49.21859 | 2469 ft | 12 kts | 257° |
| 2026-04-23 14:59 | -16.62975 | -49.21944 | 2469 ft | 11 kts | 257° |
| 2026-04-23 14:59 | -16.62991 | -49.22027 | 2469 ft | 13 kts | 263° |
| 2026-04-23 15:00 | -16.62983 | -49.22133 | 2469 ft | 16 kts | 286° |
| 2026-04-23 15:00 | -16.62932 | -49.22236 | 2469 ft | 13 kts | 300° |
| 2026-04-23 15:00 | -16.62885 | -49.22320 | 2469 ft | 14 kts | 300° |
| 2026-04-23 15:00 | -16.62838 | -49.22404 | 2469 ft | 12 kts | 300° |
| 2026-04-23 15:01 | -16.62795 | -49.22480 | 2469 ft | 11 kts | 300° |
| 2026-04-23 15:01 | -16.62756 | -49.22550 | 2469 ft | 10 kts | 300° |
| 2026-04-23 15:01 | -16.62720 | -49.22614 | 2469 ft | 9 kts | 300° |
| 2026-04-23 15:01 | -16.62686 | -49.22674 | 2469 ft | 9 kts | 300° |
| 2026-04-23 15:02 | -16.62648 | -49.22742 | 2469 ft | 10 kts | 300° |
| 2026-04-23 15:02 | -16.62612 | -49.22807 | 2469 ft | 9 kts | 300° |
| 2026-04-23 15:02 | -16.62578 | -49.22867 | 2469 ft | 9 kts | 300° |
| 2026-04-23 15:02 | -16.62587 | -49.22922 | 2469 ft | 8 kts | 221° |
| 2026-04-23 15:03 | -16.62635 | -49.22953 | 2469 ft | 7 kts | 210° |
| 2026-04-23 15:03 | -16.62678 | -49.22980 | 2469 ft | 5 kts | 207° |
| 2026-04-23 15:03 | -16.62708 | -49.22970 | 2469 ft | 5 kts | 128° |
| 2026-04-23 15:03 | -16.62746 | -49.22906 | 2469 ft | 31 kts | 120° |
| 2026-04-23 15:04 | -16.62987 | -49.22473 | 2469 ft | 104 kts | 120° |
| 2026-04-23 15:04 | -16.63467 | -49.21622 | 2471 ft | 165 kts | 120° |
| 2026-04-23 15:04 | -16.64102 | -49.20530 | 2869 ft | 180 kts | 118° |
| 2026-04-23 15:04 | -16.64716 | -49.19437 | 3361 ft | 179 kts | 118° |
| 2026-04-23 15:05 | -16.65359 | -49.18277 | 3576 ft | 191 kts | 118° |
| 2026-04-23 15:05 | -16.66049 | -49.17036 | 3805 ft | 204 kts | 118° |
| 2026-04-23 15:05 | -16.66900 | -49.15797 | 4028 ft | 218 kts | 137° |
| 2026-04-23 15:05 | -16.68340 | -49.15141 | 4212 ft | 239 kts | 173° |
| 2026-04-23 15:06 | -16.70028 | -49.15482 | 4431 ft | 260 kts | 209° |
| 2026-04-23 15:06 | -16.71290 | -49.16853 | 4873 ft | 267 kts | 240° |
| 2026-04-23 15:06 | -16.72230 | -49.18502 | 5526 ft | 265 kts | 229° |
| 2026-04-23 15:06 | -16.73699 | -49.19627 | 6097 ft | 263 kts | 202° |
| 2026-04-23 15:07 | -16.75435 | -49.20299 | 6535 ft | 271 kts | 193° |
| 2026-04-23 15:07 | -16.77345 | -49.20392 | 6855 ft | 280 kts | 168° |
| 2026-04-23 15:07 | -16.79255 | -49.19944 | 7449 ft | 282 kts | 163° |
| 2026-04-23 15:07 | -16.81163 | -49.19427 | 8086 ft | 285 kts | 163° |
| 2026-04-23 15:08 | -16.83095 | -49.18922 | 8694 ft | 287 kts | 164° |
| 2026-04-23 15:08 | -16.85049 | -49.18440 | 9336 ft | 289 kts | 165° |
| 2026-04-23 15:08 | -16.87018 | -49.17974 | 9970 ft | 291 kts | 165° |
| 2026-04-23 15:09 | -16.91032 | -49.17058 | 10833 ft | 309 kts | 165° |
| 2026-04-23 15:09 | -16.93189 | -49.16573 | 11087 ft | 323 kts | 165° |
| 2026-04-23 15:09 | -16.95430 | -49.16058 | 11446 ft | 332 kts | 163° |
| 2026-04-23 15:09 | -16.97521 | -49.15052 | 11923 ft | 332 kts | 143° |
| 2026-04-23 15:10 | -16.99338 | -49.13565 | 12470 ft | 332 kts | 138° |
| 2026-04-23 15:10 | -17.01122 | -49.12007 | 12947 ft | 335 kts | 139° |
| 2026-04-23 15:10 | -17.02935 | -49.10460 | 13417 ft | 338 kts | 139° |
| 2026-04-23 15:10 | -17.04784 | -49.08929 | 13885 ft | 340 kts | 140° |
| 2026-04-23 15:11 | -17.06663 | -49.07404 | 14336 ft | 343 kts | 141° |
| 2026-04-23 15:11 | -17.08563 | -49.05881 | 14787 ft | 345 kts | 141° |
| 2026-04-23 15:11 | -17.10485 | -49.04350 | 15223 ft | 348 kts | 141° |
| 2026-04-23 15:11 | -17.12421 | -49.02810 | 15654 ft | 350 kts | 141° |
| 2026-04-23 15:12 | -17.14373 | -49.01260 | 16079 ft | 353 kts | 141° |
| 2026-04-23 15:12 | -17.16342 | -48.99700 | 16502 ft | 355 kts | 141° |
| 2026-04-23 15:12 | -17.18321 | -48.98131 | 16928 ft | 357 kts | 141° |
| 2026-04-23 15:12 | -17.20280 | -48.96578 | 17340 ft | 359 kts | 141° |
| 2026-04-23 15:13 | -17.22265 | -48.94976 | 17747 ft | 361 kts | 140° |
| 2026-04-23 15:13 | -17.24247 | -48.93341 | 18121 ft | 364 kts | 140° |
| 2026-04-23 15:13 | -17.26243 | -48.91687 | 18492 ft | 367 kts | 140° |
| 2026-04-23 15:13 | -17.28253 | -48.90024 | 18857 ft | 369 kts | 140° |
| 2026-04-23 15:14 | -17.30279 | -48.88348 | 19217 ft | 372 kts | 140° |
| 2026-04-23 15:14 | -17.32318 | -48.86662 | 19589 ft | 374 kts | 140° |
| 2026-04-23 15:14 | -17.34367 | -48.84966 | 19953 ft | 376 kts | 140° |
| 2026-04-23 15:14 | -17.36429 | -48.83262 | 20307 ft | 378 kts | 140° |
| 2026-04-23 15:15 | -17.38502 | -48.81548 | 20660 ft | 380 kts | 140° |
| 2026-04-23 15:15 | -17.40585 | -48.79825 | 21008 ft | 382 kts | 140° |
| 2026-04-23 15:15 | -17.42678 | -48.78092 | 21345 ft | 384 kts | 140° |
| 2026-04-23 15:15 | -17.44783 | -48.76350 | 21672 ft | 386 kts | 140° |
| 2026-04-23 15:16 | -17.46898 | -48.74598 | 21992 ft | 388 kts | 140° |
| 2026-04-23 15:16 | -17.49026 | -48.72835 | 22297 ft | 390 kts | 140° |
| 2026-04-23 15:16 | -17.51166 | -48.71062 | 22605 ft | 393 kts | 140° |
| 2026-04-23 15:16 | -17.53319 | -48.69281 | 22927 ft | 395 kts | 140° |
| 2026-04-23 15:17 | -17.55481 | -48.67493 | 23246 ft | 396 kts | 140° |
| 2026-04-23 15:17 | -17.57622 | -48.65722 | 23560 ft | 398 kts | 140° |
| 2026-04-23 15:17 | -17.59801 | -48.63916 | 23878 ft | 399 kts | 140° |
| 2026-04-23 15:17 | -17.61987 | -48.62104 | 24189 ft | 401 kts | 140° |
| 2026-04-23 15:18 | -17.64183 | -48.60283 | 24495 ft | 403 kts | 140° |
| 2026-04-23 15:18 | -17.66383 | -48.58458 | 24804 ft | 404 kts | 140° |
| 2026-04-23 15:18 | -17.68593 | -48.56623 | 25102 ft | 405 kts | 140° |
| 2026-04-23 15:18 | -17.70810 | -48.54783 | 25409 ft | 406 kts | 140° |
| 2026-04-23 15:19 | -17.73032 | -48.52936 | 25705 ft | 408 kts | 140° |
| 2026-04-23 15:19 | -17.75263 | -48.51082 | 25979 ft | 410 kts | 140° |
| 2026-04-23 15:19 | -17.77504 | -48.49219 | 26254 ft | 411 kts | 140° |
| 2026-04-23 15:19 | -17.79754 | -48.47348 | 26526 ft | 413 kts | 140° |
| 2026-04-23 15:20 | -17.82015 | -48.45467 | 26789 ft | 415 kts | 140° |
| 2026-04-23 15:20 | -17.84285 | -48.43579 | 27057 ft | 417 kts | 140° |
| 2026-04-23 15:20 | -17.86565 | -48.41680 | 27320 ft | 419 kts | 140° |
| 2026-04-23 15:20 | -17.88854 | -48.39774 | 27567 ft | 421 kts | 140° |
| 2026-04-23 15:21 | -17.91153 | -48.37859 | 27820 ft | 422 kts | 140° |
| 2026-04-23 15:21 | -17.93462 | -48.35936 | 28080 ft | 424 kts | 140° |
| 2026-04-23 15:21 | -17.95744 | -48.34034 | 28351 ft | 425 kts | 140° |
| 2026-04-23 15:21 | -17.98064 | -48.32100 | 28632 ft | 426 kts | 140° |
| 2026-04-23 15:22 | -18.00392 | -48.30158 | 28901 ft | 427 kts | 140° |
| 2026-04-23 15:22 | -18.02727 | -48.28209 | 29149 ft | 429 kts | 140° |
| 2026-04-23 15:22 | -18.05069 | -48.26252 | 29390 ft | 431 kts | 140° |
| 2026-04-23 15:22 | -18.07420 | -48.24289 | 29644 ft | 432 kts | 140° |
| 2026-04-23 15:23 | -18.09778 | -48.22319 | 29898 ft | 433 kts | 141° |
| 2026-04-23 15:23 | -18.12153 | -48.20333 | 30150 ft | 434 kts | 141° |
| 2026-04-23 15:23 | -18.14526 | -48.18350 | 30387 ft | 436 kts | 141° |
| 2026-04-23 15:23 | -18.16905 | -48.16359 | 30628 ft | 437 kts | 141° |
| 2026-04-23 15:24 | -18.19290 | -48.14364 | 30868 ft | 438 kts | 141° |
| 2026-04-23 15:24 | -18.21682 | -48.12364 | 31093 ft | 440 kts | 141° |
| 2026-04-23 15:24 | -18.24080 | -48.10357 | 31342 ft | 440 kts | 141° |
| 2026-04-23 15:24 | -18.26443 | -48.08378 | 31654 ft | 439 kts | 141° |
| 2026-04-23 15:25 | -18.28830 | -48.06377 | 31977 ft | 438 kts | 141° |
| 2026-04-23 15:25 | -18.31210 | -48.04382 | 32296 ft | 436 kts | 141° |
| 2026-04-23 15:25 | -18.33583 | -48.02393 | 32598 ft | 435 kts | 141° |
| 2026-04-23 15:25 | -18.35950 | -48.00409 | 32893 ft | 434 kts | 141° |
| 2026-04-23 15:26 | -18.38318 | -47.98423 | 33227 ft | 433 kts | 141° |
| 2026-04-23 15:26 | -18.40673 | -47.96446 | 33504 ft | 432 kts | 141° |
| 2026-04-23 15:26 | -18.43030 | -47.94467 | 33725 ft | 433 kts | 142° |
| 2026-04-23 15:26 | -18.45394 | -47.92482 | 33915 ft | 435 kts | 142° |
| 2026-04-23 15:27 | -18.47764 | -47.90491 | 34108 ft | 436 kts | 142° |
| 2026-04-23 15:27 | -18.50138 | -47.88497 | 34317 ft | 436 kts | 142° |
| 2026-04-23 15:27 | -18.52513 | -47.86500 | 34521 ft | 437 kts | 142° |
| 2026-04-23 15:27 | -18.54893 | -47.84499 | 34702 ft | 438 kts | 142° |
| 2026-04-23 15:28 | -18.57279 | -47.82492 | 34847 ft | 439 kts | 142° |
| 2026-04-23 15:28 | -18.59639 | -47.80505 | 34992 ft | 441 kts | 142° |
| 2026-04-23 15:28 | -18.62047 | -47.78477 | 35135 ft | 442 kts | 142° |
| 2026-04-23 15:29 | -18.66856 | -47.74425 | 35146 ft | 442 kts | 142° |
| 2026-04-23 15:29 | -18.71662 | -47.70372 | 35157 ft | 442 kts | 142° |
| 2026-04-23 15:30 | -18.76473 | -47.66313 | 35166 ft | 442 kts | 142° |
| 2026-04-23 15:30 | -18.81285 | -47.62250 | 35169 ft | 442 kts | 142° |
| 2026-04-23 15:31 | -18.86094 | -47.58187 | 35166 ft | 442 kts | 142° |
| 2026-04-23 15:31 | -18.90872 | -47.54144 | 35170 ft | 442 kts | 142° |
| 2026-04-23 15:32 | -18.95687 | -47.50068 | 35170 ft | 443 kts | 142° |
| 2026-04-23 15:32 | -19.00499 | -47.45990 | 35174 ft | 442 kts | 142° |
| 2026-04-23 15:33 | -19.05309 | -47.41914 | 35174 ft | 443 kts | 142° |
| 2026-04-23 15:33 | -19.10120 | -47.37832 | 35178 ft | 443 kts | 142° |
| 2026-04-23 15:34 | -19.14910 | -47.33766 | 35182 ft | 443 kts | 142° |
| 2026-04-23 15:34 | -19.19723 | -47.29678 | 35176 ft | 443 kts | 142° |
| 2026-04-23 15:35 | -19.24539 | -47.25583 | 35175 ft | 443 kts | 142° |
| 2026-04-23 15:35 | -19.29359 | -47.21481 | 35178 ft | 443 kts | 142° |
| 2026-04-23 15:36 | -19.34172 | -47.17381 | 35183 ft | 443 kts | 142° |
| 2026-04-23 15:36 | -19.38954 | -47.13307 | 35183 ft | 444 kts | 142° |
| 2026-04-23 15:37 | -19.43768 | -47.09199 | 35191 ft | 444 kts | 142° |
| 2026-04-23 15:37 | -19.48586 | -47.05088 | 35193 ft | 444 kts | 142° |
| 2026-04-23 15:38 | -19.53406 | -47.00970 | 35200 ft | 444 kts | 142° |
| 2026-04-23 15:38 | -19.58205 | -46.96868 | 35210 ft | 445 kts | 142° |
| 2026-04-23 15:39 | -19.63027 | -46.92741 | 35218 ft | 445 kts | 142° |
| 2026-04-23 15:39 | -19.67856 | -46.88605 | 35221 ft | 445 kts | 142° |
| 2026-04-23 15:40 | -19.73026 | -46.85040 | 35218 ft | 443 kts | 157° |
| 2026-04-23 15:40 | -19.78955 | -46.83122 | 34899 ft | 451 kts | 168° |
| 2026-04-23 15:40 | -19.82033 | -46.82393 | 34612 ft | 454 kts | 168° |
| 2026-04-23 15:41 | -19.85129 | -46.81671 | 34327 ft | 455 kts | 168° |
| 2026-04-23 15:41 | -19.91339 | -46.80206 | 34224 ft | 457 kts | 168° |
| 2026-04-23 15:42 | -19.97519 | -46.78728 | 34219 ft | 458 kts | 168° |
| 2026-04-23 15:42 | -20.03756 | -46.77228 | 34218 ft | 458 kts | 168° |
| 2026-04-23 15:43 | -20.09987 | -46.75725 | 34220 ft | 458 kts | 168° |
| 2026-04-23 15:43 | -20.16241 | -46.74214 | 34221 ft | 458 kts | 168° |
| 2026-04-23 15:44 | -20.22428 | -46.72718 | 34221 ft | 458 kts | 168° |
| 2026-04-23 15:44 | -20.28658 | -46.71210 | 34217 ft | 458 kts | 168° |
| 2026-04-23 15:45 | -20.34890 | -46.69701 | 34200 ft | 458 kts | 168° |
| 2026-04-23 15:45 | -20.41124 | -46.68188 | 34187 ft | 459 kts | 168° |
| 2026-04-23 15:46 | -20.47362 | -46.66674 | 34178 ft | 458 kts | 168° |
| 2026-04-23 15:46 | -20.53601 | -46.65159 | 34174 ft | 459 kts | 168° |
| 2026-04-23 15:47 | -20.59841 | -46.63643 | 34177 ft | 459 kts | 168° |
| 2026-04-23 15:47 | -20.66035 | -46.62135 | 34176 ft | 459 kts | 168° |
| 2026-04-23 15:48 | -20.72275 | -46.60615 | 34177 ft | 459 kts | 169° |
| 2026-04-23 15:48 | -20.78523 | -46.59091 | 34177 ft | 460 kts | 169° |
| 2026-04-23 15:49 | -20.84766 | -46.57567 | 34179 ft | 459 kts | 169° |
| 2026-04-23 15:49 | -20.91019 | -46.56040 | 34183 ft | 460 kts | 169° |
| 2026-04-23 15:50 | -20.97269 | -46.54509 | 34186 ft | 459 kts | 169° |
| 2026-04-23 15:50 | -21.03524 | -46.52977 | 34190 ft | 460 kts | 169° |
| 2026-04-23 15:51 | -21.09784 | -46.51450 | 34190 ft | 460 kts | 170° |
| 2026-04-23 15:51 | -21.16108 | -46.51083 | 34188 ft | 457 kts | 184° |
| 2026-04-23 15:52 | -21.22476 | -46.51418 | 34184 ft | 457 kts | 185° |
| 2026-04-23 15:52 | -21.28847 | -46.51744 | 34181 ft | 457 kts | 184° |
| 2026-04-23 15:53 | -21.35227 | -46.52045 | 34184 ft | 457 kts | 184° |
| 2026-04-23 15:53 | -21.41562 | -46.52334 | 34180 ft | 457 kts | 184° |
| 2026-04-23 15:54 | -21.47932 | -46.52623 | 34181 ft | 457 kts | 184° |
| 2026-04-23 15:54 | -21.54312 | -46.52913 | 34184 ft | 457 kts | 185° |
| 2026-04-23 15:55 | -21.60673 | -46.53321 | 34190 ft | 456 kts | 187° |
| 2026-04-23 15:55 | -21.67017 | -46.53939 | 34196 ft | 457 kts | 187° |
| 2026-04-23 15:55 | -21.70188 | -46.54247 | 34046 ft | 455 kts | 187° |
| 2026-04-23 15:56 | -21.73345 | -46.54549 | 33701 ft | 454 kts | 187° |
| 2026-04-23 15:56 | -21.76458 | -46.54843 | 33194 ft | 455 kts | 187° |
| 2026-04-23 15:56 | -21.79611 | -46.55139 | 32576 ft | 453 kts | 187° |
| 2026-04-23 15:56 | -21.82753 | -46.55432 | 31906 ft | 452 kts | 187° |
| 2026-04-23 15:57 | -21.85888 | -46.55722 | 31199 ft | 452 kts | 187° |
| 2026-04-23 15:57 | -21.89014 | -46.56012 | 30645 ft | 448 kts | 187° |
| 2026-04-23 15:57 | -21.92104 | -46.56298 | 30187 ft | 442 kts | 188° |
| 2026-04-23 15:57 | -21.95157 | -46.56580 | 29720 ft | 437 kts | 188° |
| 2026-04-23 15:58 | -21.98173 | -46.56860 | 29252 ft | 432 kts | 188° |
| 2026-04-23 15:58 | -22.01157 | -46.57139 | 28787 ft | 427 kts | 188° |
| 2026-04-23 15:58 | -22.04111 | -46.57416 | 28333 ft | 422 kts | 188° |
| 2026-04-23 15:58 | -22.07030 | -46.57690 | 27874 ft | 418 kts | 188° |
| 2026-04-23 15:59 | -22.09922 | -46.57962 | 27409 ft | 414 kts | 188° |
| 2026-04-23 15:59 | -22.12757 | -46.58228 | 26943 ft | 411 kts | 188° |
| 2026-04-23 15:59 | -22.15461 | -46.58482 | 26496 ft | 408 kts | 188° |
| 2026-04-23 15:59 | -22.18283 | -46.58745 | 26032 ft | 405 kts | 188° |
| 2026-04-23 16:00 | -22.21088 | -46.59006 | 25570 ft | 401 kts | 187° |
| 2026-04-23 16:00 | -22.23865 | -46.59266 | 25109 ft | 398 kts | 187° |
| 2026-04-23 16:00 | -22.26621 | -46.59523 | 24649 ft | 395 kts | 187° |
| 2026-04-23 16:00 | -22.29357 | -46.59780 | 24190 ft | 393 kts | 187° |
| 2026-04-23 16:01 | -22.32075 | -46.60035 | 23735 ft | 390 kts | 187° |
| 2026-04-23 16:01 | -22.34775 | -46.60287 | 23284 ft | 388 kts | 187° |
| 2026-04-23 16:01 | -22.37466 | -46.60540 | 22830 ft | 385 kts | 187° |
| 2026-04-23 16:01 | -22.40135 | -46.60790 | 22384 ft | 383 kts | 187° |
| 2026-04-23 16:02 | -22.42790 | -46.61038 | 21942 ft | 382 kts | 186° |
| 2026-04-23 16:02 | -22.45398 | -46.61283 | 21499 ft | 380 kts | 186° |
| 2026-04-23 16:02 | -22.48034 | -46.61531 | 21047 ft | 379 kts | 186° |
| 2026-04-23 16:02 | -22.50664 | -46.61778 | 20594 ft | 378 kts | 186° |
| 2026-04-23 16:03 | -22.53284 | -46.62024 | 20141 ft | 377 kts | 185° |
| 2026-04-23 16:03 | -22.55901 | -46.62270 | 19693 ft | 376 kts | 185° |
| 2026-04-23 16:03 | -22.58525 | -46.62517 | 19234 ft | 375 kts | 185° |
| 2026-04-23 16:03 | -22.61131 | -46.62762 | 18777 ft | 375 kts | 185° |
| 2026-04-23 16:04 | -22.63733 | -46.63006 | 18325 ft | 374 kts | 184° |
| 2026-04-23 16:04 | -22.66328 | -46.63250 | 17868 ft | 373 kts | 184° |
| 2026-04-23 16:04 | -22.68918 | -46.63493 | 17415 ft | 372 kts | 184° |
| 2026-04-23 16:04 | -22.71466 | -46.63732 | 16968 ft | 372 kts | 184° |
| 2026-04-23 16:05 | -22.73211 | -46.63895 | 16660 ft | 371 kts | 184° |
| 2026-04-23 16:05 | -22.76622 | -46.64214 | 16049 ft | 370 kts | 184° |
| 2026-04-23 16:05 | -22.79192 | -46.64455 | 15578 ft | 370 kts | 184° |
| 2026-04-23 16:05 | -22.81753 | -46.64697 | 15165 ft | 367 kts | 184° |
| 2026-04-23 16:06 | -22.84271 | -46.64935 | 14966 ft | 357 kts | 184° |
| 2026-04-23 16:06 | -22.86729 | -46.65167 | 14671 ft | 351 kts | 184° |
| 2026-04-23 16:06 | -22.89161 | -46.65395 | 14267 ft | 349 kts | 184° |
| 2026-04-23 16:06 | -22.91580 | -46.65623 | 13866 ft | 347 kts | 184° |
| 2026-04-23 16:07 | -22.93986 | -46.65851 | 13472 ft | 345 kts | 183° |
| 2026-04-23 16:07 | -22.96373 | -46.66076 | 13086 ft | 343 kts | 183° |
| 2026-04-23 16:07 | -22.98748 | -46.66301 | 12679 ft | 341 kts | 183° |
| 2026-04-23 16:07 | -23.01111 | -46.66524 | 12286 ft | 339 kts | 183° |
| 2026-04-23 16:08 | -23.03426 | -46.66742 | 11907 ft | 337 kts | 183° |
| 2026-04-23 16:08 | -23.05762 | -46.66963 | 11521 ft | 335 kts | 183° |
| 2026-04-23 16:08 | -23.08085 | -46.67183 | 11132 ft | 333 kts | 183° |
| 2026-04-23 16:08 | -23.10412 | -46.67403 | 10761 ft | 331 kts | 183° |
| 2026-04-23 16:09 | -23.12707 | -46.67620 | 10392 ft | 329 kts | 183° |
| 2026-04-23 16:09 | -23.14953 | -46.67833 | 10017 ft | 327 kts | 183° |
| 2026-04-23 16:09 | -23.17218 | -46.68048 | 9636 ft | 325 kts | 183° |
| 2026-04-23 16:09 | -23.19473 | -46.68261 | 9244 ft | 323 kts | 183° |
| 2026-04-23 16:10 | -23.21512 | -46.68454 | 8874 ft | 322 kts | 183° |
| 2026-04-23 16:10 | -23.22651 | -46.68562 | 8666 ft | 321 kts | 183° |
| 2026-04-23 16:10 | -23.24843 | -46.68771 | 8264 ft | 320 kts | 183° |
| 2026-04-23 16:10 | -23.27057 | -46.68982 | 7930 ft | 315 kts | 183° |
| 2026-04-23 16:11 | -23.29187 | -46.69189 | 7755 ft | 306 kts | 183° |
| 2026-04-23 16:11 | -23.31283 | -46.69392 | 7572 ft | 296 kts | 183° |
| 2026-04-23 16:11 | -23.33309 | -46.69588 | 7359 ft | 284 kts | 183° |
| 2026-04-23 16:11 | -23.35242 | -46.69775 | 7147 ft | 273 kts | 183° |
| 2026-04-23 16:12 | -23.36852 | -46.69929 | 6999 ft | 265 kts | 183° |
| 2026-04-23 16:12 | -23.38499 | -46.70089 | 6843 ft | 257 kts | 183° |
| 2026-04-23 16:12 | -23.40281 | -46.70261 | 6680 ft | 250 kts | 183° |
| 2026-04-23 16:12 | -23.41990 | -46.70383 | 6519 ft | 241 kts | 173° |
| 2026-04-23 16:13 | -23.43484 | -46.69793 | 6320 ft | 226 kts | 135° |
| 2026-04-23 16:13 | -23.45127 | -46.67043 | 5876 ft | 213 kts | 117° |
| 2026-04-23 16:13 | -23.45627 | -46.66097 | 5683 ft | 213 kts | 118° |
| 2026-04-23 16:14 | -23.46454 | -46.64628 | 5384 ft | 212 kts | 121° |
| 2026-04-23 16:14 | -23.47107 | -46.63230 | 5066 ft | 210 kts | 98° |
| 2026-04-23 16:14 | -23.47051 | -46.61656 | 4882 ft | 202 kts | 78° |
| 2026-04-23 16:14 | -23.46696 | -46.60238 | 4671 ft | 185 kts | 73° |
| 2026-04-23 16:15 | -23.46319 | -46.58956 | 4394 ft | 172 kts | 73° |
| 2026-04-23 16:15 | -23.45977 | -46.57762 | 4141 ft | 161 kts | 73° |
| 2026-04-23 16:15 | -23.45659 | -46.56604 | 3932 ft | 157 kts | 74° |
| 2026-04-23 16:15 | -23.45356 | -46.55480 | 3745 ft | 157 kts | 74° |
| 2026-04-23 16:16 | -23.45045 | -46.54326 | 3558 ft | 156 kts | 73° |
| 2026-04-23 16:16 | -23.44744 | -46.53205 | 3375 ft | 156 kts | 73° |
| 2026-04-23 16:16 | -23.44427 | -46.52068 | 3170 ft | 155 kts | 73° |
| 2026-04-23 16:16 | -23.44123 | -46.50955 | 3003 ft | 155 kts | 74° |
| 2026-04-23 16:17 | -23.43825 | -46.49819 | 2799 ft | 154 kts | 74° |
| 2026-04-23 16:17 | -23.43525 | -46.48705 | 2591 ft | 154 kts | 74° |
| 2026-04-23 16:17 | -23.43231 | -46.47605 | 2469 ft | 143 kts | 73° |
| 2026-04-23 16:17 | -23.42998 | -46.46738 | 2469 ft | 94 kts | 74° |
| 2026-04-23 16:18 | -23.42880 | -46.46301 | 2470 ft | 25 kts | 74° |
| 2026-04-23 16:18 | -23.42845 | -46.46196 | 2470 ft | 12 kts | 46° |
| 2026-04-23 16:18 | -23.42766 | -46.46199 | 2470 ft | 11 kts | 344° |
| 2026-04-23 16:18 | -23.42692 | -46.46223 | 2470 ft | 10 kts | 345° |
| 2026-04-23 16:19 | -23.42627 | -46.46252 | 2470 ft | 9 kts | 306° |
| 2026-04-23 16:19 | -23.42631 | -46.46331 | 2470 ft | 14 kts | 255° |
| 2026-04-23 16:19 | -23.42666 | -46.46461 | 2470 ft | 18 kts | 254° |
| 2026-04-23 16:19 | -23.42701 | -46.46587 | 2470 ft | 16 kts | 254° |
| 2026-04-23 16:20 | -23.42732 | -46.46703 | 2470 ft | 15 kts | 254° |
| 2026-04-23 16:20 | -23.42760 | -46.46809 | 2470 ft | 14 kts | 254° |
| 2026-04-23 16:20 | -23.42787 | -46.46907 | 2469 ft | 13 kts | 254° |
| 2026-04-23 16:20 | -23.42818 | -46.47023 | 2469 ft | 17 kts | 253° |
| 2026-04-23 16:21 | -23.42850 | -46.47141 | 2469 ft | 15 kts | 254° |
| 2026-04-23 16:21 | -23.42879 | -46.47250 | 2469 ft | 14 kts | 253° |
| 2026-04-23 16:21 | -23.42906 | -46.47349 | 2469 ft | 13 kts | 254° |
| 2026-04-23 16:21 | -23.42932 | -46.47443 | 2469 ft | 12 kts | 254° |
| 2026-04-23 16:22 | -23.42958 | -46.47541 | 2469 ft | 15 kts | 254° |
| 2026-04-23 16:22 | -23.42990 | -46.47661 | 2469 ft | 16 kts | 253° |
| 2026-04-23 16:22 | -23.43022 | -46.47777 | 2469 ft | 14 kts | 254° |
| 2026-04-23 16:22 | -23.43049 | -46.47879 | 2469 ft | 13 kts | 254° |
| 2026-04-23 16:23 | -23.43075 | -46.47972 | 2468 ft | 12 kts | 253° |
| 2026-04-23 16:23 | -23.43098 | -46.48056 | 2468 ft | 11 kts | 254° |
| 2026-04-23 16:23 | -23.43082 | -46.48122 | 2468 ft | 9 kts | 333° |
| 2026-04-23 16:23 | -23.43018 | -46.48135 | 2468 ft | 8 kts | 354° |
| 2026-04-23 16:24 | -23.42964 | -46.48152 | 2468 ft | 7 kts | 313° |
| 2026-04-23 16:24 | -23.42939 | -46.48200 | 2468 ft | 6 kts | 295° |
| 2026-04-23 16:24 | -23.42929 | -46.48224 | 2468 ft | 0 kts | 294° |